sensor_id;sensor_type;location;lat;lon;timestamp;P1;durP1;ratioP1;P2;durP2;ratioP2
77828;SDS011;67019;51.034;3.728;2023-08-08T00:01:40;12.53;;;3.52;;
77828;SDS011;67019;51.034;3.728;2023-08-08T00:04:11;8.53;;;2.98;;
77828;SDS011;67019;51.034;3.728;2023-08-08T00:06:38;13.48;;;3.58;;
77828;SDS011;67019;51.034;3.728;2023-08-08T00:09:06;8.95;;;3.45;;
77828;SDS011;67019;51.034;3.728;2023-08-08T00:11:33;15.85;;;4.33;;
77828;SDS011;67019;51.034;3.728;2023-08-08T00:14:02;14.20;;;3.22;;
77828;SDS011;67019;51.034;3.728;2023-08-08T00:16:29;12.75;;;3.37;;
77828;SDS011;67019;51.034;3.728;2023-08-08T00:18:57;8.75;;;3.70;;
77828;SDS011;67019;51.034;3.728;2023-08-08T00:21:25;12.23;;;3.62;;
77828;SDS011;67019;51.034;3.728;2023-08-08T00:23:53;16.85;;;4.05;;
77828;SDS011;67019;51.034;3.728;2023-08-08T00:26:20;11.53;;;3.30;;
77828;SDS011;67019;51.034;3.728;2023-08-08T00:28:48;12.15;;;3.55;;
77828;SDS011;67019;51.034;3.728;2023-08-08T00:31:15;15.03;;;3.72;;
77828;SDS011;67019;51.034;3.728;2023-08-08T00:33:45;14.85;;;3.72;;
77828;SDS011;67019;51.034;3.728;2023-08-08T00:36:12;16.97;;;4.62;;
77828;SDS011;67019;51.034;3.728;2023-08-08T00:38:40;7.33;;;3.20;;
77828;SDS011;67019;51.034;3.728;2023-08-08T00:41:08;12.00;;;3.85;;
77828;SDS011;67019;51.034;3.728;2023-08-08T00:43:35;15.63;;;3.87;;
77828;SDS011;67019;51.034;3.728;2023-08-08T00:46:03;22.52;;;5.10;;
77828;SDS011;67019;51.034;3.728;2023-08-08T00:48:31;21.17;;;4.50;;
77828;SDS011;67019;51.034;3.728;2023-08-08T00:50:59;15.05;;;3.90;;
77828;SDS011;67019;51.034;3.728;2023-08-08T00:53:27;15.55;;;4.70;;
77828;SDS011;67019;51.034;3.728;2023-08-08T00:55:58;14.60;;;4.47;;
77828;SDS011;67019;51.034;3.728;2023-08-08T00:58:26;15.50;;;5.92;;
77828;SDS011;67019;51.034;3.728;2023-08-08T01:00:54;19.50;;;3.77;;
77828;SDS011;67019;51.034;3.728;2023-08-08T01:03:24;13.90;;;3.35;;
77828;SDS011;67019;51.034;3.728;2023-08-08T01:06:03;11.10;;;3.30;;
77828;SDS011;67019;51.034;3.728;2023-08-08T01:08:37;17.98;;;4.47;;
77828;SDS011;67019;51.034;3.728;2023-08-08T01:11:08;14.20;;;3.80;;
77828;SDS011;67019;51.034;3.728;2023-08-08T01:13:36;20.72;;;4.78;;
77828;SDS011;67019;51.034;3.728;2023-08-08T01:16:05;16.73;;;4.15;;
77828;SDS011;67019;51.034;3.728;2023-08-08T01:18:33;15.43;;;4.50;;
77828;SDS011;67019;51.034;3.728;2023-08-08T01:21:03;19.55;;;6.80;;
77828;SDS011;67019;51.034;3.728;2023-08-08T01:23:42;19.92;;;5.45;;
77828;SDS011;67019;51.034;3.728;2023-08-08T01:26:11;19.45;;;4.75;;
77828;SDS011;67019;51.034;3.728;2023-08-08T01:28:39;23.10;;;4.58;;
77828;SDS011;67019;51.034;3.728;2023-08-08T01:31:09;21.67;;;4.50;;
77828;SDS011;67019;51.034;3.728;2023-08-08T01:33:37;11.35;;;4.50;;
77828;SDS011;67019;51.034;3.728;2023-08-08T01:36:13;22.58;;;5.03;;
77828;SDS011;67019;51.034;3.728;2023-08-08T01:38:53;20.00;;;5.15;;
77828;SDS011;67019;51.034;3.728;2023-08-08T01:41:25;16.27;;;4.83;;
77828;SDS011;67019;51.034;3.728;2023-08-08T01:43:53;14.23;;;4.10;;
77828;SDS011;67019;51.034;3.728;2023-08-08T01:46:21;14.73;;;5.05;;
77828;SDS011;67019;51.034;3.728;2023-08-08T01:48:50;12.37;;;5.55;;
77828;SDS011;67019;51.034;3.728;2023-08-08T01:51:18;15.78;;;5.45;;
77828;SDS011;67019;51.034;3.728;2023-08-08T01:53:45;17.70;;;4.78;;
77828;SDS011;67019;51.034;3.728;2023-08-08T01:56:13;15.10;;;4.53;;
77828;SDS011;67019;51.034;3.728;2023-08-08T01:58:41;15.45;;;5.17;;
77828;SDS011;67019;51.034;3.728;2023-08-08T02:01:08;22.00;;;5.90;;
77828;SDS011;67019;51.034;3.728;2023-08-08T02:03:36;20.62;;;6.62;;
77828;SDS011;67019;51.034;3.728;2023-08-08T02:06:04;14.00;;;5.60;;
77828;SDS011;67019;51.034;3.728;2023-08-08T02:08:31;17.00;;;5.95;;
77828;SDS011;67019;51.034;3.728;2023-08-08T02:10:59;10.80;;;5.47;;
77828;SDS011;67019;51.034;3.728;2023-08-08T02:13:27;25.92;;;5.95;;
77828;SDS011;67019;51.034;3.728;2023-08-08T02:15:54;24.18;;;7.58;;
77828;SDS011;67019;51.034;3.728;2023-08-08T02:18:22;22.45;;;7.42;;
77828;SDS011;67019;51.034;3.728;2023-08-08T02:20:49;18.85;;;6.28;;
77828;SDS011;67019;51.034;3.728;2023-08-08T02:23:17;17.17;;;6.47;;
77828;SDS011;67019;51.034;3.728;2023-08-08T02:25:45;14.53;;;6.50;;
77828;SDS011;67019;51.034;3.728;2023-08-08T02:28:12;21.23;;;6.25;;
77828;SDS011;67019;51.034;3.728;2023-08-08T02:30:40;20.52;;;6.95;;
77828;SDS011;67019;51.034;3.728;2023-08-08T02:33:07;20.62;;;5.40;;
77828;SDS011;67019;51.034;3.728;2023-08-08T02:35:36;16.65;;;5.58;;
77828;SDS011;67019;51.034;3.728;2023-08-08T02:38:04;19.30;;;6.12;;
77828;SDS011;67019;51.034;3.728;2023-08-08T02:40:31;15.93;;;6.03;;
77828;SDS011;67019;51.034;3.728;2023-08-08T02:42:59;19.57;;;5.62;;
77828;SDS011;67019;51.034;3.728;2023-08-08T02:45:27;12.05;;;6.20;;
77828;SDS011;67019;51.034;3.728;2023-08-08T02:47:54;20.92;;;6.15;;
77828;SDS011;67019;51.034;3.728;2023-08-08T02:50:22;19.20;;;5.50;;
77828;SDS011;67019;51.034;3.728;2023-08-08T02:52:49;26.70;;;6.10;;
77828;SDS011;67019;51.034;3.728;2023-08-08T02:55:17;16.85;;;5.47;;
77828;SDS011;67019;51.034;3.728;2023-08-08T02:57:45;13.90;;;5.60;;
77828;SDS011;67019;51.034;3.728;2023-08-08T03:00:13;17.30;;;6.70;;
77828;SDS011;67019;51.034;3.728;2023-08-08T03:02:41;22.82;;;7.05;;
77828;SDS011;67019;51.034;3.728;2023-08-08T03:05:08;16.95;;;5.65;;
77828;SDS011;67019;51.034;3.728;2023-08-08T03:07:36;22.25;;;7.40;;
77828;SDS011;67019;51.034;3.728;2023-08-08T03:10:04;20.85;;;7.62;;
77828;SDS011;67019;51.034;3.728;2023-08-08T03:12:32;18.25;;;5.92;;
77828;SDS011;67019;51.034;3.728;2023-08-08T03:14:59;22.82;;;6.70;;
77828;SDS011;67019;51.034;3.728;2023-08-08T03:17:27;22.82;;;6.22;;
77828;SDS011;67019;51.034;3.728;2023-08-08T03:19:55;27.90;;;6.75;;
77828;SDS011;67019;51.034;3.728;2023-08-08T03:22:23;16.57;;;5.75;;
77828;SDS011;67019;51.034;3.728;2023-08-08T03:24:50;25.32;;;7.33;;
77828;SDS011;67019;51.034;3.728;2023-08-08T03:27:18;20.62;;;6.03;;
77828;SDS011;67019;51.034;3.728;2023-08-08T03:29:45;15.43;;;6.08;;
77828;SDS011;67019;51.034;3.728;2023-08-08T03:32:13;18.65;;;6.53;;
77828;SDS011;67019;51.034;3.728;2023-08-08T03:34:41;23.55;;;7.40;;
77828;SDS011;67019;51.034;3.728;2023-08-08T03:37:09;24.02;;;6.22;;
77828;SDS011;67019;51.034;3.728;2023-08-08T03:39:36;19.67;;;6.05;;
77828;SDS011;67019;51.034;3.728;2023-08-08T03:42:04;17.62;;;6.33;;
77828;SDS011;67019;51.034;3.728;2023-08-08T03:44:32;23.00;;;7.35;;
77828;SDS011;67019;51.034;3.728;2023-08-08T03:46:59;26.75;;;7.10;;
77828;SDS011;67019;51.034;3.728;2023-08-08T03:49:27;16.57;;;6.12;;
77828;SDS011;67019;51.034;3.728;2023-08-08T03:51:54;21.55;;;9.20;;
77828;SDS011;67019;51.034;3.728;2023-08-08T03:54:22;27.17;;;6.08;;
77828;SDS011;67019;51.034;3.728;2023-08-08T03:56:50;22.17;;;8.43;;
77828;SDS011;67019;51.034;3.728;2023-08-08T03:59:17;21.52;;;7.12;;
77828;SDS011;67019;51.034;3.728;2023-08-08T04:01:45;19.67;;;7.00;;
77828;SDS011;67019;51.034;3.728;2023-08-08T04:04:13;24.30;;;7.92;;
77828;SDS011;67019;51.034;3.728;2023-08-08T04:06:41;18.27;;;6.58;;
77828;SDS011;67019;51.034;3.728;2023-08-08T04:09:08;22.13;;;8.35;;
77828;SDS011;67019;51.034;3.728;2023-08-08T04:11:36;35.75;;;10.35;;
77828;SDS011;67019;51.034;3.728;2023-08-08T04:14:04;26.95;;;8.05;;
77828;SDS011;67019;51.034;3.728;2023-08-08T04:16:31;26.52;;;8.10;;
77828;SDS011;67019;51.034;3.728;2023-08-08T04:18:59;20.05;;;8.70;;
77828;SDS011;67019;51.034;3.728;2023-08-08T04:21:28;16.57;;;8.08;;
77828;SDS011;67019;51.034;3.728;2023-08-08T04:23:58;19.57;;;8.65;;
77828;SDS011;67019;51.034;3.728;2023-08-08T04:26:26;23.98;;;8.88;;
77828;SDS011;67019;51.034;3.728;2023-08-08T04:28:53;28.38;;;9.13;;
77828;SDS011;67019;51.034;3.728;2023-08-08T04:31:21;13.55;;;9.08;;
77828;SDS011;67019;51.034;3.728;2023-08-08T04:33:50;14.68;;;7.50;;
77828;SDS011;67019;51.034;3.728;2023-08-08T04:36:20;17.42;;;8.08;;
77828;SDS011;67019;51.034;3.728;2023-08-08T04:38:47;21.85;;;7.65;;
77828;SDS011;67019;51.034;3.728;2023-08-08T04:41:15;26.37;;;7.47;;
77828;SDS011;67019;51.034;3.728;2023-08-08T04:43:43;25.00;;;8.68;;
77828;SDS011;67019;51.034;3.728;2023-08-08T04:46:10;26.15;;;7.25;;
77828;SDS011;67019;51.034;3.728;2023-08-08T04:48:38;15.45;;;7.20;;
77828;SDS011;67019;51.034;3.728;2023-08-08T04:51:06;17.70;;;7.30;;
77828;SDS011;67019;51.034;3.728;2023-08-08T04:53:34;21.62;;;7.45;;
77828;SDS011;67019;51.034;3.728;2023-08-08T04:56:02;25.25;;;6.85;;
77828;SDS011;67019;51.034;3.728;2023-08-08T04:58:30;29.40;;;8.13;;
77828;SDS011;67019;51.034;3.728;2023-08-08T05:00:59;18.32;;;6.17;;
77828;SDS011;67019;51.034;3.728;2023-08-08T05:03:26;18.48;;;6.78;;
77828;SDS011;67019;51.034;3.728;2023-08-08T05:05:54;20.77;;;5.90;;
77828;SDS011;67019;51.034;3.728;2023-08-08T05:08:21;25.30;;;5.60;;
77828;SDS011;67019;51.034;3.728;2023-08-08T05:10:49;21.23;;;6.22;;
77828;SDS011;67019;51.034;3.728;2023-08-08T05:13:17;17.75;;;7.00;;
77828;SDS011;67019;51.034;3.728;2023-08-08T05:15:44;20.72;;;7.87;;
77828;SDS011;67019;51.034;3.728;2023-08-08T05:18:12;17.73;;;5.50;;
77828;SDS011;67019;51.034;3.728;2023-08-08T05:20:40;19.10;;;5.37;;
77828;SDS011;67019;51.034;3.728;2023-08-08T05:23:07;14.53;;;5.55;;
77828;SDS011;67019;51.034;3.728;2023-08-08T05:25:35;25.90;;;6.25;;
77828;SDS011;67019;51.034;3.728;2023-08-08T05:28:02;17.07;;;5.33;;
77828;SDS011;67019;51.034;3.728;2023-08-08T05:30:30;15.95;;;5.40;;
77828;SDS011;67019;51.034;3.728;2023-08-08T05:32:58;27.65;;;6.37;;
77828;SDS011;67019;51.034;3.728;2023-08-08T05:35:26;20.70;;;5.75;;
77828;SDS011;67019;51.034;3.728;2023-08-08T05:37:53;18.23;;;6.65;;
77828;SDS011;67019;51.034;3.728;2023-08-08T05:40:21;19.12;;;5.20;;
77828;SDS011;67019;51.034;3.728;2023-08-08T05:42:49;16.62;;;5.00;;
77828;SDS011;67019;51.034;3.728;2023-08-08T05:45:16;20.62;;;6.33;;
77828;SDS011;67019;51.034;3.728;2023-08-08T05:47:44;23.30;;;5.90;;
77828;SDS011;67019;51.034;3.728;2023-08-08T05:50:12;20.85;;;6.05;;
77828;SDS011;67019;51.034;3.728;2023-08-08T05:52:39;18.62;;;5.62;;
77828;SDS011;67019;51.034;3.728;2023-08-08T05:55:07;17.82;;;5.72;;
77828;SDS011;67019;51.034;3.728;2023-08-08T05:57:35;13.98;;;5.30;;
77828;SDS011;67019;51.034;3.728;2023-08-08T06:00:03;22.13;;;5.33;;
77828;SDS011;67019;51.034;3.728;2023-08-08T06:02:33;15.15;;;4.65;;
77828;SDS011;67019;51.034;3.728;2023-08-08T06:05:01;21.57;;;6.47;;
77828;SDS011;67019;51.034;3.728;2023-08-08T06:07:28;12.33;;;5.58;;
77828;SDS011;67019;51.034;3.728;2023-08-08T06:09:56;10.98;;;4.75;;
77828;SDS011;67019;51.034;3.728;2023-08-08T06:12:25;17.20;;;4.30;;
77828;SDS011;67019;51.034;3.728;2023-08-08T06:14:53;11.10;;;4.67;;
77828;SDS011;67019;51.034;3.728;2023-08-08T06:17:20;20.37;;;3.87;;
77828;SDS011;67019;51.034;3.728;2023-08-08T06:19:49;10.60;;;3.72;;
77828;SDS011;67019;51.034;3.728;2023-08-08T06:22:19;13.50;;;4.53;;
77828;SDS011;67019;51.034;3.728;2023-08-08T06:24:47;15.95;;;4.58;;
77828;SDS011;67019;51.034;3.728;2023-08-08T06:27:15;14.90;;;4.03;;
77828;SDS011;67019;51.034;3.728;2023-08-08T06:29:42;14.50;;;3.85;;
77828;SDS011;67019;51.034;3.728;2023-08-08T06:32:10;12.55;;;3.95;;
77828;SDS011;67019;51.034;3.728;2023-08-08T06:34:38;14.43;;;4.28;;
77828;SDS011;67019;51.034;3.728;2023-08-08T06:37:06;12.00;;;3.85;;
77828;SDS011;67019;51.034;3.728;2023-08-08T06:39:33;10.15;;;3.72;;
77828;SDS011;67019;51.034;3.728;2023-08-08T06:42:01;9.98;;;4.10;;
77828;SDS011;67019;51.034;3.728;2023-08-08T06:44:31;9.43;;;4.25;;
77828;SDS011;67019;51.034;3.728;2023-08-08T06:47:02;10.48;;;5.25;;
77828;SDS011;67019;51.034;3.728;2023-08-08T06:49:30;14.80;;;3.92;;
77828;SDS011;67019;51.034;3.728;2023-08-08T06:51:57;10.65;;;4.05;;
77828;SDS011;67019;51.034;3.728;2023-08-08T06:54:25;10.72;;;3.90;;
77828;SDS011;67019;51.034;3.728;2023-08-08T06:56:54;8.13;;;2.72;;
77828;SDS011;67019;51.034;3.728;2023-08-08T06:59:23;14.28;;;4.37;;
77828;SDS011;67019;51.034;3.728;2023-08-08T07:01:50;11.70;;;3.60;;
77828;SDS011;67019;51.034;3.728;2023-08-08T07:04:18;8.63;;;4.10;;
77828;SDS011;67019;51.034;3.728;2023-08-08T07:06:47;14.83;;;6.33;;
77828;SDS011;67019;51.034;3.728;2023-08-08T07:09:14;11.75;;;3.92;;
77828;SDS011;67019;51.034;3.728;2023-08-08T07:11:42;9.58;;;3.17;;
77828;SDS011;67019;51.034;3.728;2023-08-08T07:14:10;11.00;;;3.60;;
77828;SDS011;67019;51.034;3.728;2023-08-08T07:16:37;6.55;;;3.47;;
77828;SDS011;67019;51.034;3.728;2023-08-08T07:19:05;10.00;;;3.30;;
77828;SDS011;67019;51.034;3.728;2023-08-08T07:21:33;8.53;;;3.22;;
77828;SDS011;67019;51.034;3.728;2023-08-08T07:24:00;9.75;;;2.70;;
77828;SDS011;67019;51.034;3.728;2023-08-08T07:26:28;8.25;;;3.15;;
77828;SDS011;67019;51.034;3.728;2023-08-08T07:28:56;6.20;;;2.77;;
77828;SDS011;67019;51.034;3.728;2023-08-08T07:31:25;20.10;;;4.58;;
77828;SDS011;67019;51.034;3.728;2023-08-08T07:33:52;8.85;;;3.42;;
77828;SDS011;67019;51.034;3.728;2023-08-08T07:36:20;12.18;;;3.08;;
77828;SDS011;67019;51.034;3.728;2023-08-08T07:38:48;11.40;;;3.90;;
77828;SDS011;67019;51.034;3.728;2023-08-08T07:41:15;6.85;;;2.87;;
77828;SDS011;67019;51.034;3.728;2023-08-08T07:43:44;5.92;;;3.25;;
77828;SDS011;67019;51.034;3.728;2023-08-08T07:46:11;10.40;;;2.87;;
77828;SDS011;67019;51.034;3.728;2023-08-08T07:48:39;13.90;;;3.70;;
77828;SDS011;67019;51.034;3.728;2023-08-08T07:51:07;9.05;;;3.15;;
77828;SDS011;67019;51.034;3.728;2023-08-08T07:53:35;6.65;;;3.33;;
77828;SDS011;67019;51.034;3.728;2023-08-08T07:56:02;13.85;;;4.00;;
77828;SDS011;67019;51.034;3.728;2023-08-08T07:58:31;11.90;;;3.15;;
77828;SDS011;67019;51.034;3.728;2023-08-08T08:00:59;13.13;;;3.67;;
77828;SDS011;67019;51.034;3.728;2023-08-08T08:03:27;8.03;;;4.00;;
77828;SDS011;67019;51.034;3.728;2023-08-08T08:05:54;8.78;;;3.45;;
77828;SDS011;67019;51.034;3.728;2023-08-08T08:08:22;6.00;;;3.05;;
77828;SDS011;67019;51.034;3.728;2023-08-08T08:10:50;8.18;;;3.47;;
77828;SDS011;67019;51.034;3.728;2023-08-08T08:13:18;15.03;;;3.47;;
77828;SDS011;67019;51.034;3.728;2023-08-08T08:15:45;14.18;;;3.83;;
77828;SDS011;67019;51.034;3.728;2023-08-08T08:18:13;9.95;;;4.12;;
77828;SDS011;67019;51.034;3.728;2023-08-08T08:20:43;11.88;;;3.72;;
77828;SDS011;67019;51.034;3.728;2023-08-08T08:23:10;10.28;;;3.92;;
77828;SDS011;67019;51.034;3.728;2023-08-08T08:25:38;10.43;;;4.08;;
77828;SDS011;67019;51.034;3.728;2023-08-08T08:28:06;6.55;;;3.27;;
77828;SDS011;67019;51.034;3.728;2023-08-08T08:30:34;9.60;;;3.80;;
77828;SDS011;67019;51.034;3.728;2023-08-08T08:33:02;11.08;;;5.25;;
77828;SDS011;67019;51.034;3.728;2023-08-08T08:35:32;14.73;;;4.53;;
77828;SDS011;67019;51.034;3.728;2023-08-08T08:38:00;9.55;;;3.72;;
77828;SDS011;67019;51.034;3.728;2023-08-08T08:40:28;6.85;;;3.52;;
77828;SDS011;67019;51.034;3.728;2023-08-08T08:45:26;7.20;;;3.80;;
77828;SDS011;67019;51.034;3.728;2023-08-08T08:47:56;8.55;;;3.65;;
77828;SDS011;67019;51.034;3.728;2023-08-08T08:50:26;11.85;;;4.05;;
77828;SDS011;67019;51.034;3.728;2023-08-08T08:52:54;7.75;;;3.75;;
77828;SDS011;67019;51.034;3.728;2023-08-08T08:55:23;12.37;;;3.72;;
77828;SDS011;67019;51.034;3.728;2023-08-08T08:57:51;10.55;;;4.15;;
77828;SDS011;67019;51.034;3.728;2023-08-08T09:00:19;7.10;;;3.10;;
77828;SDS011;67019;51.034;3.728;2023-08-08T09:02:46;8.53;;;2.85;;
77828;SDS011;67019;51.034;3.728;2023-08-08T09:05:15;9.53;;;3.52;;
77828;SDS011;67019;51.034;3.728;2023-08-08T09:07:47;6.90;;;2.65;;
77828;SDS011;67019;51.034;3.728;2023-08-08T09:10:15;5.65;;;2.70;;
77828;SDS011;67019;51.034;3.728;2023-08-08T09:12:43;8.35;;;3.27;;
77828;SDS011;67019;51.034;3.728;2023-08-08T09:15:13;7.75;;;2.67;;
77828;SDS011;67019;51.034;3.728;2023-08-08T09:17:41;7.25;;;2.60;;
77828;SDS011;67019;51.034;3.728;2023-08-08T09:20:16;5.00;;;2.40;;
77828;SDS011;67019;51.034;3.728;2023-08-08T09:22:40;5.78;;;2.25;;
77828;SDS011;67019;51.034;3.728;2023-08-08T09:25:07;3.15;;;1.42;;
77828;SDS011;67019;51.034;3.728;2023-08-08T09:27:35;5.03;;;1.77;;
77828;SDS011;67019;51.034;3.728;2023-08-08T09:30:03;4.10;;;1.98;;
77828;SDS011;67019;51.034;3.728;2023-08-08T09:32:31;5.45;;;1.55;;
77828;SDS011;67019;51.034;3.728;2023-08-08T09:34:59;2.47;;;2.00;;
77828;SDS011;67019;51.034;3.728;2023-08-08T09:37:28;5.83;;;2.22;;
77828;SDS011;67019;51.034;3.728;2023-08-08T09:39:56;4.55;;;2.08;;
77828;SDS011;67019;51.034;3.728;2023-08-08T09:42:25;4.62;;;1.50;;
77828;SDS011;67019;51.034;3.728;2023-08-08T09:44:54;2.62;;;1.87;;
77828;SDS011;67019;51.034;3.728;2023-08-08T09:47:24;4.45;;;2.00;;
77828;SDS011;67019;51.034;3.728;2023-08-08T09:49:53;6.45;;;2.00;;
77828;SDS011;67019;51.034;3.728;2023-08-08T09:52:23;8.50;;;2.50;;
77828;SDS011;67019;51.034;3.728;2023-08-08T09:54:51;6.20;;;2.55;;
77828;SDS011;67019;51.034;3.728;2023-08-08T09:57:20;3.30;;;1.90;;
77828;SDS011;67019;51.034;3.728;2023-08-08T09:59:49;3.53;;;1.93;;
77828;SDS011;67019;51.034;3.728;2023-08-08T10:02:18;8.05;;;2.20;;
77828;SDS011;67019;51.034;3.728;2023-08-08T10:04:46;3.45;;;2.02;;
77828;SDS011;67019;51.034;3.728;2023-08-08T10:07:14;5.22;;;2.67;;
77828;SDS011;67019;51.034;3.728;2023-08-08T10:09:41;5.10;;;2.92;;
77828;SDS011;67019;51.034;3.728;2023-08-08T10:12:10;7.10;;;3.00;;
77828;SDS011;67019;51.034;3.728;2023-08-08T10:14:41;11.03;;;2.72;;
77828;SDS011;67019;51.034;3.728;2023-08-08T10:17:12;5.97;;;2.95;;
77828;SDS011;67019;51.034;3.728;2023-08-08T10:19:39;6.28;;;3.00;;
77828;SDS011;67019;51.034;3.728;2023-08-08T10:22:07;3.83;;;2.52;;
77828;SDS011;67019;51.034;3.728;2023-08-08T10:24:36;5.17;;;2.15;;
77828;SDS011;67019;51.034;3.728;2023-08-08T10:27:04;5.40;;;2.55;;
77828;SDS011;67019;51.034;3.728;2023-08-08T10:29:33;10.25;;;2.00;;
77828;SDS011;67019;51.034;3.728;2023-08-08T10:32:05;2.95;;;1.60;;
77828;SDS011;67019;51.034;3.728;2023-08-08T10:34:38;3.08;;;1.50;;
77828;SDS011;67019;51.034;3.728;2023-08-08T10:37:16;5.50;;;1.57;;
77828;SDS011;67019;51.034;3.728;2023-08-08T10:40:03;6.15;;;2.37;;
77828;SDS011;67019;51.034;3.728;2023-08-08T10:42:20;5.45;;;1.77;;
77828;SDS011;67019;51.034;3.728;2023-08-08T10:44:53;6.37;;;1.73;;
77828;SDS011;67019;51.034;3.728;2023-08-08T10:47:41;5.85;;;1.82;;
77828;SDS011;67019;51.034;3.728;2023-08-08T10:49:58;2.27;;;1.62;;
77828;SDS011;67019;51.034;3.728;2023-08-08T10:52:27;7.42;;;1.98;;
77828;SDS011;67019;51.034;3.728;2023-08-08T10:54:56;2.15;;;1.80;;
77828;SDS011;67019;51.034;3.728;2023-08-08T10:57:27;1.40;;;1.05;;
77828;SDS011;67019;51.034;3.728;2023-08-08T10:59:54;4.78;;;1.65;;
77828;SDS011;67019;51.034;3.728;2023-08-08T11:02:22;3.90;;;2.27;;
77828;SDS011;67019;51.034;3.728;2023-08-08T11:04:50;3.40;;;2.00;;
77828;SDS011;67019;51.034;3.728;2023-08-08T11:07:18;6.28;;;1.50;;
77828;SDS011;67019;51.034;3.728;2023-08-08T11:09:47;3.08;;;1.60;;
77828;SDS011;67019;51.034;3.728;2023-08-08T11:12:16;3.58;;;1.45;;
77828;SDS011;67019;51.034;3.728;2023-08-08T11:14:43;2.15;;;1.65;;
77828;SDS011;67019;51.034;3.728;2023-08-08T11:17:11;2.45;;;1.62;;
77828;SDS011;67019;51.034;3.728;2023-08-08T11:19:39;3.08;;;1.77;;
77828;SDS011;67019;51.034;3.728;2023-08-08T11:22:10;3.85;;;1.42;;
77828;SDS011;67019;51.034;3.728;2023-08-08T11:24:38;2.40;;;1.60;;
77828;SDS011;67019;51.034;3.728;2023-08-08T11:27:05;4.35;;;1.55;;
77828;SDS011;67019;51.034;3.728;2023-08-08T11:29:33;5.42;;;1.87;;
77828;SDS011;67019;51.034;3.728;2023-08-08T11:32:01;3.58;;;2.02;;
77828;SDS011;67019;51.034;3.728;2023-08-08T11:34:32;6.20;;;1.50;;
77828;SDS011;67019;51.034;3.728;2023-08-08T11:37:01;10.35;;;1.47;;
77828;SDS011;67019;51.034;3.728;2023-08-08T11:39:29;4.08;;;1.70;;
77828;SDS011;67019;51.034;3.728;2023-08-08T11:41:57;3.62;;;1.60;;
77828;SDS011;67019;51.034;3.728;2023-08-08T11:44:25;2.05;;;1.65;;
77828;SDS011;67019;51.034;3.728;2023-08-08T11:46:52;1.40;;;1.30;;
77828;SDS011;67019;51.034;3.728;2023-08-08T11:49:20;3.60;;;1.72;;
77828;SDS011;67019;51.034;3.728;2023-08-08T11:51:48;4.12;;;1.55;;
77828;SDS011;67019;51.034;3.728;2023-08-08T11:54:15;1.77;;;1.42;;
77828;SDS011;67019;51.034;3.728;2023-08-08T11:56:43;7.05;;;1.65;;
77828;SDS011;67019;51.034;3.728;2023-08-08T11:59:11;1.35;;;1.10;;
77828;SDS011;67019;51.034;3.728;2023-08-08T12:01:38;4.10;;;1.40;;
77828;SDS011;67019;51.034;3.728;2023-08-08T12:04:08;4.10;;;1.50;;
77828;SDS011;67019;51.034;3.728;2023-08-08T12:06:36;3.02;;;1.17;;
77828;SDS011;67019;51.034;3.728;2023-08-08T12:09:11;4.03;;;1.47;;
77828;SDS011;67019;51.034;3.728;2023-08-08T12:11:39;3.95;;;1.17;;
77828;SDS011;67019;51.034;3.728;2023-08-08T12:14:07;5.03;;;1.42;;
77828;SDS011;67019;51.034;3.728;2023-08-08T12:16:40;3.40;;;2.15;;
77828;SDS011;67019;51.034;3.728;2023-08-08T12:19:09;5.08;;;1.50;;
77828;SDS011;67019;51.034;3.728;2023-08-08T12:21:37;5.05;;;1.30;;
77828;SDS011;67019;51.034;3.728;2023-08-08T12:24:05;3.40;;;1.67;;
77828;SDS011;67019;51.034;3.728;2023-08-08T12:26:33;4.12;;;1.35;;
77828;SDS011;67019;51.034;3.728;2023-08-08T12:29:00;2.98;;;1.25;;
77828;SDS011;67019;51.034;3.728;2023-08-08T12:31:28;5.10;;;1.35;;
77828;SDS011;67019;51.034;3.728;2023-08-08T12:33:56;3.25;;;1.12;;
77828;SDS011;67019;51.034;3.728;2023-08-08T12:36:23;2.77;;;1.20;;
77828;SDS011;67019;51.034;3.728;2023-08-08T12:38:52;7.17;;;1.57;;
77828;SDS011;67019;51.034;3.728;2023-08-08T12:41:20;4.35;;;1.42;;
77828;SDS011;67019;51.034;3.728;2023-08-08T12:43:47;4.58;;;1.27;;
77828;SDS011;67019;51.034;3.728;2023-08-08T12:46:15;3.37;;;1.05;;
77828;SDS011;67019;51.034;3.728;2023-08-08T12:48:43;5.08;;;1.42;;
77828;SDS011;67019;51.034;3.728;2023-08-08T12:51:11;1.47;;;0.80;;
77828;SDS011;67019;51.034;3.728;2023-08-08T12:53:38;4.20;;;1.00;;
77828;SDS011;67019;51.034;3.728;2023-08-08T12:56:06;1.30;;;1.00;;
77828;SDS011;67019;51.034;3.728;2023-08-08T12:58:33;3.72;;;1.02;;
77828;SDS011;67019;51.034;3.728;2023-08-08T13:01:01;2.62;;;1.17;;
77828;SDS011;67019;51.034;3.728;2023-08-08T13:03:29;2.75;;;1.57;;
77828;SDS011;67019;51.034;3.728;2023-08-08T13:05:58;1.67;;;1.00;;
77828;SDS011;67019;51.034;3.728;2023-08-08T13:08:26;1.82;;;1.10;;
77828;SDS011;67019;51.034;3.728;2023-08-08T13:10:53;2.02;;;1.27;;
77828;SDS011;67019;51.034;3.728;2023-08-08T13:13:23;1.07;;;0.80;;
77828;SDS011;67019;51.034;3.728;2023-08-08T13:18:18;4.50;;;0.98;;
77828;SDS011;67019;51.034;3.728;2023-08-08T13:20:46;3.60;;;1.10;;
77828;SDS011;67019;51.034;3.728;2023-08-08T13:23:14;2.60;;;1.52;;
77828;SDS011;67019;51.034;3.728;2023-08-08T13:25:41;3.87;;;1.22;;
77828;SDS011;67019;51.034;3.728;2023-08-08T13:28:09;2.80;;;1.32;;
77828;SDS011;67019;51.034;3.728;2023-08-08T13:30:37;2.72;;;0.90;;
77828;SDS011;67019;51.034;3.728;2023-08-08T13:33:06;1.10;;;0.93;;
77828;SDS011;67019;51.034;3.728;2023-08-08T13:35:34;4.50;;;1.20;;
77828;SDS011;67019;51.034;3.728;2023-08-08T13:38:03;4.60;;;1.30;;
77828;SDS011;67019;51.034;3.728;2023-08-08T13:40:30;2.17;;;1.30;;
77828;SDS011;67019;51.034;3.728;2023-08-08T13:42:58;3.27;;;0.80;;
77828;SDS011;67019;51.034;3.728;2023-08-08T13:45:26;4.90;;;2.00;;
77828;SDS011;67019;51.034;3.728;2023-08-08T13:48:01;3.17;;;1.00;;
77828;SDS011;67019;51.034;3.728;2023-08-08T13:50:25;2.02;;;1.15;;
77828;SDS011;67019;51.034;3.728;2023-08-08T13:52:54;1.65;;;0.82;;
77828;SDS011;67019;51.034;3.728;2023-08-08T13:55:21;1.60;;;1.00;;
77828;SDS011;67019;51.034;3.728;2023-08-08T13:57:49;2.45;;;0.98;;
77828;SDS011;67019;51.034;3.728;2023-08-08T14:00:17;2.75;;;1.10;;
77828;SDS011;67019;51.034;3.728;2023-08-08T14:02:44;6.67;;;1.05;;
77828;SDS011;67019;51.034;3.728;2023-08-08T14:05:12;5.40;;;1.17;;
77828;SDS011;67019;51.034;3.728;2023-08-08T14:07:41;2.83;;;1.20;;
77828;SDS011;67019;51.034;3.728;2023-08-08T14:10:08;2.70;;;1.05;;
77828;SDS011;67019;51.034;3.728;2023-08-08T14:12:36;2.62;;;1.20;;
77828;SDS011;67019;51.034;3.728;2023-08-08T14:15:05;5.25;;;1.77;;
77828;SDS011;67019;51.034;3.728;2023-08-08T14:20:02;2.70;;;1.12;;
77828;SDS011;67019;51.034;3.728;2023-08-08T14:22:30;2.50;;;1.22;;
77828;SDS011;67019;51.034;3.728;2023-08-08T14:24:59;2.12;;;1.05;;
77828;SDS011;67019;51.034;3.728;2023-08-08T14:27:28;1.57;;;1.12;;
77828;SDS011;67019;51.034;3.728;2023-08-08T14:29:55;7.30;;;1.50;;
77828;SDS011;67019;51.034;3.728;2023-08-08T14:32:25;3.77;;;1.52;;
77828;SDS011;67019;51.034;3.728;2023-08-08T14:34:52;3.60;;;1.30;;
77828;SDS011;67019;51.034;3.728;2023-08-08T14:37:21;2.42;;;1.20;;
77828;SDS011;67019;51.034;3.728;2023-08-08T14:39:49;1.92;;;1.30;;
77828;SDS011;67019;51.034;3.728;2023-08-08T14:42:16;5.97;;;1.60;;
77828;SDS011;67019;51.034;3.728;2023-08-08T14:44:44;3.22;;;1.92;;
77828;SDS011;67019;51.034;3.728;2023-08-08T14:47:12;3.72;;;1.45;;
77828;SDS011;67019;51.034;3.728;2023-08-08T14:49:39;3.20;;;1.10;;
77828;SDS011;67019;51.034;3.728;2023-08-08T14:52:07;4.65;;;1.50;;
77828;SDS011;67019;51.034;3.728;2023-08-08T14:54:35;1.75;;;1.32;;